sensor_id;sensor_type;location;lat;lon;timestamp;temperature;humidity
29547;DHT22;40782;47.264;11.330;2023-05-07T00:01:38;14.50;99.90
29547;DHT22;40782;47.264;11.330;2023-05-07T00:04:05;14.50;99.90
29547;DHT22;40782;47.264;11.330;2023-05-07T00:06:33;14.60;99.90
29547;DHT22;40782;47.264;11.330;2023-05-07T00:09:00;14.60;99.90
29547;DHT22;40782;47.264;11.330;2023-05-07T00:11:27;14.50;99.90
29547;DHT22;40782;47.264;11.330;2023-05-07T00:13:54;14.50;99.90
29547;DHT22;40782;47.264;11.330;2023-05-07T00:16:22;14.50;99.90
29547;DHT22;40782;47.264;11.330;2023-05-07T00:18:49;14.50;99.90
29547;DHT22;40782;47.264;11.330;2023-05-07T00:21:17;14.50;99.90
29547;DHT22;40782;47.264;11.330;2023-05-07T00:23:44;14.50;99.90
29547;DHT22;40782;47.264;11.330;2023-05-07T00:26:11;14.50;99.90
29547;DHT22;40782;47.264;11.330;2023-05-07T00:28:38;14.40;99.90
29547;DHT22;40782;47.264;11.330;2023-05-07T00:31:05;14.40;99.90
29547;DHT22;40782;47.264;11.330;2023-05-07T00:33:33;14.30;99.90
29547;DHT22;40782;47.264;11.330;2023-05-07T00:36:00;14.30;99.90
29547;DHT22;40782;47.264;11.330;2023-05-07T00:38:27;14.30;99.90
29547;DHT22;40782;47.264;11.330;2023-05-07T00:40:54;14.30;99.90
29547;DHT22;40782;47.264;11.330;2023-05-07T00:43:21;14.20;99.90
29547;DHT22;40782;47.264;11.330;2023-05-07T00:45:48;14.20;99.90
29547;DHT22;40782;47.264;11.330;2023-05-07T00:48:15;14.20;99.90
29547;DHT22;40782;47.264;11.330;2023-05-07T00:50:44;14.20;99.90
29547;DHT22;40782;47.264;11.330;2023-05-07T00:53:12;14.20;99.90
29547;DHT22;40782;47.264;11.330;2023-05-07T00:55:39;14.10;99.90
29547;DHT22;40782;47.264;11.330;2023-05-07T00:58:06;14.00;99.90
29547;DHT22;40782;47.264;11.330;2023-05-07T01:00:34;14.00;99.90
29547;DHT22;40782;47.264;11.330;2023-05-07T01:03:01;14.00;99.90
29547;DHT22;40782;47.264;11.330;2023-05-07T01:05:28;14.00;99.90
29547;DHT22;40782;47.264;11.330;2023-05-07T01:07:57;14.00;99.90
29547;DHT22;40782;47.264;11.330;2023-05-07T01:10:24;14.00;99.90
29547;DHT22;40782;47.264;11.330;2023-05-07T01:12:51;13.90;99.90
29547;DHT22;40782;47.264;11.330;2023-05-07T01:15:18;13.90;99.90
29547;DHT22;40782;47.264;11.330;2023-05-07T01:17:46;13.90;99.90
29547;DHT22;40782;47.264;11.330;2023-05-07T01:20:13;13.90;99.90
29547;DHT22;40782;47.264;11.330;2023-05-07T01:22:42;13.90;99.90
29547;DHT22;40782;47.264;11.330;2023-05-07T01:25:09;13.90;99.90
29547;DHT22;40782;47.264;11.330;2023-05-07T01:27:37;13.90;99.90
29547;DHT22;40782;47.264;11.330;2023-05-07T01:30:05;13.90;99.90
29547;DHT22;40782;47.264;11.330;2023-05-07T01:32:32;13.90;99.90
29547;DHT22;40782;47.264;11.330;2023-05-07T01:35:00;13.90;99.90
29547;DHT22;40782;47.264;11.330;2023-05-07T01:37:27;13.80;99.90
29547;DHT22;40782;47.264;11.330;2023-05-07T01:39:56;13.80;99.90
29547;DHT22;40782;47.264;11.330;2023-05-07T01:42:24;13.70;99.90
29547;DHT22;40782;47.264;11.330;2023-05-07T01:44:51;13.70;99.90
29547;DHT22;40782;47.264;11.330;2023-05-07T01:47:18;13.70;99.90
29547;DHT22;40782;47.264;11.330;2023-05-07T01:49:45;13.70;99.90
29547;DHT22;40782;47.264;11.330;2023-05-07T01:52:13;13.70;99.90
29547;DHT22;40782;47.264;11.330;2023-05-07T01:54:40;13.70;99.90
29547;DHT22;40782;47.264;11.330;2023-05-07T01:57:09;13.70;99.90
29547;DHT22;40782;47.264;11.330;2023-05-07T01:59:36;13.70;99.90
29547;DHT22;40782;47.264;11.330;2023-05-07T02:02:03;13.70;99.90
29547;DHT22;40782;47.264;11.330;2023-05-07T02:04:30;13.70;99.90
29547;DHT22;40782;47.264;11.330;2023-05-07T02:06:57;13.70;99.90
29547;DHT22;40782;47.264;11.330;2023-05-07T02:09:24;13.70;99.90
29547;DHT22;40782;47.264;11.330;2023-05-07T02:11:51;13.60;99.90
29547;DHT22;40782;47.264;11.330;2023-05-07T02:14:20;13.70;99.90
29547;DHT22;40782;47.264;11.330;2023-05-07T02:16:47;13.80;99.90
29547;DHT22;40782;47.264;11.330;2023-05-07T02:19:14;13.80;99.90
29547;DHT22;40782;47.264;11.330;2023-05-07T02:21:41;13.80;99.90
29547;DHT22;40782;47.264;11.330;2023-05-07T02:24:08;13.80;99.90
29547;DHT22;40782;47.264;11.330;2023-05-07T02:26:35;14.00;99.90
29547;DHT22;40782;47.264;11.330;2023-05-07T02:29:02;14.00;99.90
29547;DHT22;40782;47.264;11.330;2023-05-07T02:31:31;14.00;99.90
29547;DHT22;40782;47.264;11.330;2023-05-07T02:33:59;13.90;99.90
29547;DHT22;40782;47.264;11.330;2023-05-07T02:36:26;13.90;99.90
29547;DHT22;40782;47.264;11.330;2023-05-07T02:38:53;13.80;99.90
29547;DHT22;40782;47.264;11.330;2023-05-07T02:41:20;13.90;99.90
29547;DHT22;40782;47.264;11.330;2023-05-07T02:43:47;13.80;99.90
29547;DHT22;40782;47.264;11.330;2023-05-07T02:46:14;14.00;99.90
29547;DHT22;40782;47.264;11.330;2023-05-07T02:48:42;13.90;99.90
29547;DHT22;40782;47.264;11.330;2023-05-07T02:51:09;13.90;99.90
29547;DHT22;40782;47.264;11.330;2023-05-07T02:53:36;13.90;99.90
29547;DHT22;40782;47.264;11.330;2023-05-07T02:56:04;13.70;99.90
29547;DHT22;40782;47.264;11.330;2023-05-07T02:58:31;13.70;99.90
29547;DHT22;40782;47.264;11.330;2023-05-07T03:00:59;13.70;99.90
29547;DHT22;40782;47.264;11.330;2023-05-07T03:03:26;13.80;99.90
29547;DHT22;40782;47.264;11.330;2023-05-07T03:05:54;13.80;99.90
29547;DHT22;40782;47.264;11.330;2023-05-07T03:08:21;13.70;99.90
29547;DHT22;40782;47.264;11.330;2023-05-07T03:10:48;13.50;99.90
29547;DHT22;40782;47.264;11.330;2023-05-07T03:13:15;13.50;99.90
29547;DHT22;40782;47.264;11.330;2023-05-07T03:15:42;13.50;99.90
29547;DHT22;40782;47.264;11.330;2023-05-07T03:18:09;13.50;99.90
29547;DHT22;40782;47.264;11.330;2023-05-07T03:20:37;13.40;99.90
29547;DHT22;40782;47.264;11.330;2023-05-07T03:23:05;13.40;99.90
29547;DHT22;40782;47.264;11.330;2023-05-07T03:25:32;13.40;99.90
29547;DHT22;40782;47.264;11.330;2023-05-07T03:27:59;13.40;99.90
29547;DHT22;40782;47.264;11.330;2023-05-07T03:30:26;13.40;99.90
29547;DHT22;40782;47.264;11.330;2023-05-07T03:32:53;13.40;99.90
29547;DHT22;40782;47.264;11.330;2023-05-07T03:35:21;13.50;99.90
29547;DHT22;40782;47.264;11.330;2023-05-07T03:37:48;13.50;99.90
29547;DHT22;40782;47.264;11.330;2023-05-07T03:40:16;13.40;99.90
29547;DHT22;40782;47.264;11.330;2023-05-07T03:42:43;13.40;99.90
29547;DHT22;40782;47.264;11.330;2023-05-07T03:45:10;13.40;99.90
29547;DHT22;40782;47.264;11.330;2023-05-07T03:47:37;13.40;99.90
29547;DHT22;40782;47.264;11.330;2023-05-07T03:50:04;13.30;99.90
29547;DHT22;40782;47.264;11.330;2023-05-07T03:52:31;13.30;99.90
29547;DHT22;40782;47.264;11.330;2023-05-07T03:54:58;13.30;99.90
29547;DHT22;40782;47.264;11.330;2023-05-07T03:57:27;13.20;99.90
29547;DHT22;40782;47.264;11.330;2023-05-07T03:59:54;13.20;99.90
29547;DHT22;40782;47.264;11.330;2023-05-07T04:02:21;13.20;99.90
29547;DHT22;40782;47.264;11.330;2023-05-07T04:04:48;13.30;99.90
29547;DHT22;40782;47.264;11.330;2023-05-07T04:07:15;13.30;99.90
29547;DHT22;40782;47.264;11.330;2023-05-07T04:09:42;13.20;99.90
29547;DHT22;40782;47.264;11.330;2023-05-07T04:12:09;13.20;99.90
29547;DHT22;40782;47.264;11.330;2023-05-07T04:14:37;13.20;99.90
29547;DHT22;40782;47.264;11.330;2023-05-07T04:17:04;13.10;99.90
29547;DHT22;40782;47.264;11.330;2023-05-07T04:19:32;13.00;99.90
29547;DHT22;40782;47.264;11.330;2023-05-07T04:22:00;13.10;99.90
29547;DHT22;40782;47.264;11.330;2023-05-07T04:24:27;13.10;99.90
29547;DHT22;40782;47.264;11.330;2023-05-07T04:26:54;13.10;99.90
29547;DHT22;40782;47.264;11.330;2023-05-07T04:29:21;13.20;99.90
29547;DHT22;40782;47.264;11.330;2023-05-07T04:31:49;13.20;99.90
29547;DHT22;40782;47.264;11.330;2023-05-07T04:34:16;13.20;99.90
29547;DHT22;40782;47.264;11.330;2023-05-07T04:36:43;13.20;99.90
29547;DHT22;40782;47.264;11.330;2023-05-07T04:39:11;13.30;99.90
29547;DHT22;40782;47.264;11.330;2023-05-07T04:41:39;13.30;99.90
29547;DHT22;40782;47.264;11.330;2023-05-07T04:44:06;13.30;99.90
29547;DHT22;40782;47.264;11.330;2023-05-07T04:46:34;13.30;99.90
29547;DHT22;40782;47.264;11.330;2023-05-07T04:49:03;13.30;99.90
29547;DHT22;40782;47.264;11.330;2023-05-07T04:51:31;13.30;99.90
29547;DHT22;40782;47.264;11.330;2023-05-07T04:53:58;13.40;99.90
29547;DHT22;40782;47.264;11.330;2023-05-07T04:56:27;13.40;99.90
29547;DHT22;40782;47.264;11.330;2023-05-07T04:58:54;13.40;99.90
29547;DHT22;40782;47.264;11.330;2023-05-07T05:01:21;13.40;99.90
29547;DHT22;40782;47.264;11.330;2023-05-07T05:03:48;13.50;99.90
29547;DHT22;40782;47.264;11.330;2023-05-07T05:06:17;13.50;99.90
29547;DHT22;40782;47.264;11.330;2023-05-07T05:08:44;13.60;99.90
29547;DHT22;40782;47.264;11.330;2023-05-07T05:11:11;13.60;99.90
29547;DHT22;40782;47.264;11.330;2023-05-07T05:13:38;13.70;99.90
29547;DHT22;40782;47.264;11.330;2023-05-07T05:16:05;13.70;99.90
29547;DHT22;40782;47.264;11.330;2023-05-07T05:18:32;13.70;99.90
29547;DHT22;40782;47.264;11.330;2023-05-07T05:20:59;13.70;99.90
29547;DHT22;40782;47.264;11.330;2023-05-07T05:23:28;13.70;99.90
29547;DHT22;40782;47.264;11.330;2023-05-07T05:25:55;13.70;99.90
29547;DHT22;40782;47.264;11.330;2023-05-07T05:28:22;13.70;99.90
29547;DHT22;40782;47.264;11.330;2023-05-07T05:30:49;13.80;99.90
29547;DHT22;40782;47.264;11.330;2023-05-07T05:33:16;13.80;99.90
29547;DHT22;40782;47.264;11.330;2023-05-07T05:35:43;13.70;99.90
29547;DHT22;40782;47.264;11.330;2023-05-07T05:38:10;13.70;99.90
29547;DHT22;40782;47.264;11.330;2023-05-07T05:40:39;13.80;99.90
29547;DHT22;40782;47.264;11.330;2023-05-07T05:43:06;13.90;99.90
29547;DHT22;40782;47.264;11.330;2023-05-07T05:45:33;13.90;99.90
29547;DHT22;40782;47.264;11.330;2023-05-07T05:48:00;14.10;99.90
29547;DHT22;40782;47.264;11.330;2023-05-07T05:50:27;14.00;99.90
29547;DHT22;40782;47.264;11.330;2023-05-07T05:52:54;14.10;99.90
29547;DHT22;40782;47.264;11.330;2023-05-07T05:55:22;14.20;99.90
29547;DHT22;40782;47.264;11.330;2023-05-07T05:57:50;14.30;99.90
29547;DHT22;40782;47.264;11.330;2023-05-07T06:00:17;14.50;99.90
29547;DHT22;40782;47.264;11.330;2023-05-07T06:02:44;14.50;99.90
29547;DHT22;40782;47.264;11.330;2023-05-07T06:05:11;14.50;99.90
29547;DHT22;40782;47.264;11.330;2023-05-07T06:07:38;14.50;99.90
29547;DHT22;40782;47.264;11.330;2023-05-07T06:10:06;14.40;99.90
29547;DHT22;40782;47.264;11.330;2023-05-07T06:12:33;14.60;99.90
29547;DHT22;40782;47.264;11.330;2023-05-07T06:15:01;14.50;99.90
29547;DHT22;40782;47.264;11.330;2023-05-07T06:17:28;14.50;99.90
29547;DHT22;40782;47.264;11.330;2023-05-07T06:19:56;14.70;99.90
29547;DHT22;40782;47.264;11.330;2023-05-07T06:22:23;14.80;99.90
29547;DHT22;40782;47.264;11.330;2023-05-07T06:24:50;14.90;99.90
29547;DHT22;40782;47.264;11.330;2023-05-07T06:27:17;14.80;99.90
29547;DHT22;40782;47.264;11.330;2023-05-07T06:29:44;14.90;99.90
29547;DHT22;40782;47.264;11.330;2023-05-07T06:32:12;15.00;99.90
29547;DHT22;40782;47.264;11.330;2023-05-07T06:34:40;15.00;99.90
29547;DHT22;40782;47.264;11.330;2023-05-07T06:37:07;15.10;99.90
29547;DHT22;40782;47.264;11.330;2023-05-07T06:39:34;15.20;99.90
29547;DHT22;40782;47.264;11.330;2023-05-07T06:42:01;15.40;99.90
29547;DHT22;40782;47.264;11.330;2023-05-07T06:44:30;15.50;99.90
29547;DHT22;40782;47.264;11.330;2023-05-07T06:46:57;15.50;99.90
29547;DHT22;40782;47.264;11.330;2023-05-07T06:49:25;15.60;99.90
29547;DHT22;40782;47.264;11.330;2023-05-07T06:51:53;15.70;99.90
29547;DHT22;40782;47.264;11.330;2023-05-07T06:54:20;15.80;99.90
29547;DHT22;40782;47.264;11.330;2023-05-07T06:56:47;15.90;99.90
29547;DHT22;40782;47.264;11.330;2023-05-07T06:59:14;16.00;99.90
29547;DHT22;40782;47.264;11.330;2023-05-07T07:01:41;16.00;99.90
29547;DHT22;40782;47.264;11.330;2023-05-07T07:04:08;16.00;99.90
29547;DHT22;40782;47.264;11.330;2023-05-07T07:06:36;16.00;99.90
29547;DHT22;40782;47.264;11.330;2023-05-07T07:09:03;15.90;99.90
29547;DHT22;40782;47.264;11.330;2023-05-07T07:11:30;16.00;99.90
29547;DHT22;40782;47.264;11.330;2023-05-07T07:13:58;16.10;99.90
29547;DHT22;40782;47.264;11.330;2023-05-07T07:16:25;16.20;99.90
29547;DHT22;40782;47.264;11.330;2023-05-07T07:18:52;16.30;99.90
29547;DHT22;40782;47.264;11.330;2023-05-07T07:21:19;16.30;99.90
29547;DHT22;40782;47.264;11.330;2023-05-07T07:23:47;16.30;99.90
29547;DHT22;40782;47.264;11.330;2023-05-07T07:26:14;16.50;99.90
29547;DHT22;40782;47.264;11.330;2023-05-07T07:28:42;16.70;99.90
29547;DHT22;40782;47.264;11.330;2023-05-07T07:31:09;16.60;99.90
29547;DHT22;40782;47.264;11.330;2023-05-07T07:33:36;16.70;99.90
29547;DHT22;40782;47.264;11.330;2023-05-07T07:36:04;16.70;99.90
29547;DHT22;40782;47.264;11.330;2023-05-07T07:38:31;16.80;99.90
29547;DHT22;40782;47.264;11.330;2023-05-07T07:41:00;17.00;99.90
29547;DHT22;40782;47.264;11.330;2023-05-07T07:43:27;17.10;99.90
29547;DHT22;40782;47.264;11.330;2023-05-07T07:45:54;17.20;99.90
29547;DHT22;40782;47.264;11.330;2023-05-07T07:48:21;17.20;99.90
29547;DHT22;40782;47.264;11.330;2023-05-07T07:50:49;17.20;99.90
29547;DHT22;40782;47.264;11.330;2023-05-07T07:53:17;17.30;99.90
29547;DHT22;40782;47.264;11.330;2023-05-07T07:55:44;17.40;99.90
29547;DHT22;40782;47.264;11.330;2023-05-07T07:58:13;17.40;99.90
29547;DHT22;40782;47.264;11.330;2023-05-07T08:00:41;17.60;99.90
29547;DHT22;40782;47.264;11.330;2023-05-07T08:03:09;17.70;99.90
29547;DHT22;40782;47.264;11.330;2023-05-07T08:05:36;17.70;99.90
29547;DHT22;40782;47.264;11.330;2023-05-07T08:08:04;17.80;99.90
29547;DHT22;40782;47.264;11.330;2023-05-07T08:10:31;18.00;99.90
29547;DHT22;40782;47.264;11.330;2023-05-07T08:13:00;18.10;99.90
29547;DHT22;40782;47.264;11.330;2023-05-07T08:15:28;18.10;99.90
29547;DHT22;40782;47.264;11.330;2023-05-07T08:17:56;18.20;99.90
29547;DHT22;40782;47.264;11.330;2023-05-07T08:20:25;18.30;99.90
29547;DHT22;40782;47.264;11.330;2023-05-07T08:22:52;18.40;99.90
29547;DHT22;40782;47.264;11.330;2023-05-07T08:25:19;18.40;99.90
29547;DHT22;40782;47.264;11.330;2023-05-07T08:27:46;18.60;99.90
29547;DHT22;40782;47.264;11.330;2023-05-07T08:30:14;18.60;99.90
29547;DHT22;40782;47.264;11.330;2023-05-07T08:32:42;18.80;99.90
29547;DHT22;40782;47.264;11.330;2023-05-07T08:35:09;18.90;99.90
29547;DHT22;40782;47.264;11.330;2023-05-07T08:37:36;19.00;99.90
29547;DHT22;40782;47.264;11.330;2023-05-07T08:40:03;19.10;99.90
29547;DHT22;40782;47.264;11.330;2023-05-07T08:42:31;19.20;99.90
29547;DHT22;40782;47.264;11.330;2023-05-07T08:45:02;19.20;99.90
29547;DHT22;40782;47.264;11.330;2023-05-07T08:47:34;19.30;99.90
29547;DHT22;40782;47.264;11.330;2023-05-07T08:50:03;19.30;99.90
29547;DHT22;40782;47.264;11.330;2023-05-07T08:52:31;19.40;99.90
29547;DHT22;40782;47.264;11.330;2023-05-07T08:54:58;19.60;99.90
29547;DHT22;40782;47.264;11.330;2023-05-07T08:57:25;19.70;99.90
29547;DHT22;40782;47.264;11.330;2023-05-07T08:59:52;19.60;99.90
29547;DHT22;40782;47.264;11.330;2023-05-07T09:02:20;19.70;99.90
29547;DHT22;40782;47.264;11.330;2023-05-07T09:04:47;19.90;99.90
29547;DHT22;40782;47.264;11.330;2023-05-07T09:07:15;20.20;99.90
29547;DHT22;40782;47.264;11.330;2023-05-07T09:09:43;20.10;99.90
29547;DHT22;40782;47.264;11.330;2023-05-07T09:12:10;20.30;99.90
29547;DHT22;40782;47.264;11.330;2023-05-07T09:14:37;20.50;99.90
29547;DHT22;40782;47.264;11.330;2023-05-07T09:17:04;20.70;99.90
29547;DHT22;40782;47.264;11.330;2023-05-07T09:19:31;20.80;99.90
29547;DHT22;40782;47.264;11.330;2023-05-07T09:21:59;20.80;99.90
29547;DHT22;40782;47.264;11.330;2023-05-07T09:24:33;20.40;99.90
29547;DHT22;40782;47.264;11.330;2023-05-07T09:27:03;20.50;99.90
29547;DHT22;40782;47.264;11.330;2023-05-07T09:29:30;20.80;99.90
29547;DHT22;40782;47.264;11.330;2023-05-07T09:32:01;20.90;99.90
29547;DHT22;40782;47.264;11.330;2023-05-07T09:34:28;21.00;99.90
29547;DHT22;40782;47.264;11.330;2023-05-07T09:36:56;21.00;99.90
29547;DHT22;40782;47.264;11.330;2023-05-07T09:39:24;21.20;99.60
29547;DHT22;40782;47.264;11.330;2023-05-07T09:41:52;21.20;98.70
29547;DHT22;40782;47.264;11.330;2023-05-07T09:44:20;21.30;99.40
29547;DHT22;40782;47.264;11.330;2023-05-07T09:46:51;21.40;98.90
29547;DHT22;40782;47.264;11.330;2023-05-07T09:49:20;21.60;98.30
29547;DHT22;40782;47.264;11.330;2023-05-07T09:51:48;21.60;97.00
29547;DHT22;40782;47.264;11.330;2023-05-07T09:54:15;21.80;97.30
29547;DHT22;40782;47.264;11.330;2023-05-07T09:56:43;21.90;95.80
29547;DHT22;40782;47.264;11.330;2023-05-07T09:59:14;22.20;96.10
29547;DHT22;40782;47.264;11.330;2023-05-07T10:01:41;22.50;96.30
29547;DHT22;40782;47.264;11.330;2023-05-07T10:04:08;22.80;96.90
29547;DHT22;40782;47.264;11.330;2023-05-07T10:06:36;22.70;95.70
29547;DHT22;40782;47.264;11.330;2023-05-07T10:09:04;22.30;96.10
29547;DHT22;40782;47.264;11.330;2023-05-07T10:11:32;22.40;96.00
29547;DHT22;40782;47.264;11.330;2023-05-07T10:13:59;22.50;94.80
29547;DHT22;40782;47.264;11.330;2023-05-07T10:16:30;22.90;94.20
29547;DHT22;40782;47.264;11.330;2023-05-07T10:18:58;23.30;93.30
29547;DHT22;40782;47.264;11.330;2023-05-07T10:21:26;23.60;93.50
29547;DHT22;40782;47.264;11.330;2023-05-07T10:23:56;23.70;92.20
29547;DHT22;40782;47.264;11.330;2023-05-07T10:26:25;23.60;91.70
29547;DHT22;40782;47.264;11.330;2023-05-07T10:28:54;23.80;91.50
29547;DHT22;40782;47.264;11.330;2023-05-07T10:31:28;23.60;91.20
29547;DHT22;40782;47.264;11.330;2023-05-07T10:34:01;23.20;91.10
29547;DHT22;40782;47.264;11.330;2023-05-07T10:36:34;23.80;90.70
29547;DHT22;40782;47.264;11.330;2023-05-07T10:39:01;23.90;90.20
29547;DHT22;40782;47.264;11.330;2023-05-07T10:41:29;23.60;90.00
29547;DHT22;40782;47.264;11.330;2023-05-07T10:43:56;23.20;89.70
29547;DHT22;40782;47.264;11.330;2023-05-07T10:46:26;23.60;89.40
29547;DHT22;40782;47.264;11.330;2023-05-07T10:49:07;23.70;86.70
29547;DHT22;40782;47.264;11.330;2023-05-07T10:51:36;23.90;85.60
29547;DHT22;40782;47.264;11.330;2023-05-07T10:54:18;24.40;82.80
29547;DHT22;40782;47.264;11.330;2023-05-07T10:56:45;24.90;84.10
29547;DHT22;40782;47.264;11.330;2023-05-07T10:59:31;25.20;84.80
29547;DHT22;40782;47.264;11.330;2023-05-07T11:02:00;25.40;81.10
29547;DHT22;40782;47.264;11.330;2023-05-07T11:04:30;25.30;83.10
29547;DHT22;40782;47.264;11.330;2023-05-07T11:07:10;25.30;80.00
29547;DHT22;40782;47.264;11.330;2023-05-07T11:09:59;25.40;81.60
29547;DHT22;40782;47.264;11.330;2023-05-07T11:15:12;24.30;80.60
29547;DHT22;40782;47.264;11.330;2023-05-07T11:17:51;24.90;80.30
29547;DHT22;40782;47.264;11.330;2023-05-07T11:20:20;25.20;80.20
29547;DHT22;40782;47.264;11.330;2023-05-07T11:22:47;25.40;76.70
29547;DHT22;40782;47.264;11.330;2023-05-07T11:25:17;25.70;76.00
29547;DHT22;40782;47.264;11.330;2023-05-07T11:27:44;25.50;76.90
29547;DHT22;40782;47.264;11.330;2023-05-07T11:30:16;25.70;76.00
29547;DHT22;40782;47.264;11.330;2023-05-07T11:32:46;26.00;75.60
29547;DHT22;40782;47.264;11.330;2023-05-07T11:35:13;25.80;72.10
29547;DHT22;40782;47.264;11.330;2023-05-07T11:37:43;25.90;73.70
29547;DHT22;40782;47.264;11.330;2023-05-07T11:40:11;26.10;75.50
29547;DHT22;40782;47.264;11.330;2023-05-07T11:42:39;26.10;71.10
29547;DHT22;40782;47.264;11.330;2023-05-07T11:45:08;26.00;73.30
29547;DHT22;40782;47.264;11.330;2023-05-07T11:47:35;26.30;71.60
29547;DHT22;40782;47.264;11.330;2023-05-07T11:50:03;25.80;69.30
29547;DHT22;40782;47.264;11.330;2023-05-07T11:52:31;26.10;68.00
29547;DHT22;40782;47.264;11.330;2023-05-07T11:54:59;26.00;70.80
29547;DHT22;40782;47.264;11.330;2023-05-07T11:57:27;26.10;70.30
29547;DHT22;40782;47.264;11.330;2023-05-07T11:59:54;26.10;70.30
29547;DHT22;40782;47.264;11.330;2023-05-07T12:02:21;26.30;68.20
29547;DHT22;40782;47.264;11.330;2023-05-07T12:04:50;26.40;68.70
29547;DHT22;40782;47.264;11.330;2023-05-07T12:07:17;26.30;67.00
29547;DHT22;40782;47.264;11.330;2023-05-07T12:09:44;26.40;67.50
29547;DHT22;40782;47.264;11.330;2023-05-07T12:12:14;27.10;69.20
29547;DHT22;40782;47.264;11.330;2023-05-07T12:14:43;26.70;65.70
29547;DHT22;40782;47.264;11.330;2023-05-07T12:17:11;27.10;65.00
29547;DHT22;40782;47.264;11.330;2023-05-07T12:19:39;27.20;64.40
29547;DHT22;40782;47.264;11.330;2023-05-07T12:22:07;27.00;63.40
29547;DHT22;40782;47.264;11.330;2023-05-07T12:24:44;26.90;62.80
29547;DHT22;40782;47.264;11.330;2023-05-07T12:27:11;27.20;66.70
29547;DHT22;40782;47.264;11.330;2023-05-07T12:29:40;27.50;66.60
29547;DHT22;40782;47.264;11.330;2023-05-07T12:32:12;27.70;66.90
29547;DHT22;40782;47.264;11.330;2023-05-07T12:34:40;28.20;65.60
29547;DHT22;40782;47.264;11.330;2023-05-07T12:37:07;28.50;61.20
29547;DHT22;40782;47.264;11.330;2023-05-07T12:39:34;28.50;60.50
29547;DHT22;40782;47.264;11.330;2023-05-07T12:42:01;28.80;57.60
29547;DHT22;40782;47.264;11.330;2023-05-07T12:44:29;28.20;60.10
29547;DHT22;40782;47.264;11.330;2023-05-07T12:46:58;28.90;56.70
29547;DHT22;40782;47.264;11.330;2023-05-07T12:49:25;28.90;57.00
29547;DHT22;40782;47.264;11.330;2023-05-07T12:51:53;28.80;58.20
29547;DHT22;40782;47.264;11.330;2023-05-07T12:54:29;29.30;60.50
29547;DHT22;40782;47.264;11.330;2023-05-07T12:57:00;30.30;57.80
29547;DHT22;40782;47.264;11.330;2023-05-07T12:59:30;31.20;55.10
29547;DHT22;40782;47.264;11.330;2023-05-07T13:01:59;31.20;56.60
29547;DHT22;40782;47.264;11.330;2023-05-07T13:04:26;31.40;54.90
29547;DHT22;40782;47.264;11.330;2023-05-07T13:06:53;31.20;56.90
29547;DHT22;40782;47.264;11.330;2023-05-07T13:09:20;31.20;57.80
29547;DHT22;40782;47.264;11.330;2023-05-07T13:11:47;31.40;56.90
29547;DHT22;40782;47.264;11.330;2023-05-07T13:14:14;31.10;59.00
29547;DHT22;40782;47.264;11.330;2023-05-07T13:16:41;31.30;55.90
29547;DHT22;40782;47.264;11.330;2023-05-07T13:19:10;31.20;56.00
29547;DHT22;40782;47.264;11.330;2023-05-07T13:21:37;31.00;58.00
29547;DHT22;40782;47.264;11.330;2023-05-07T13:24:04;30.80;58.40
29547;DHT22;40782;47.264;11.330;2023-05-07T13:26:32;31.00;56.00
29547;DHT22;40782;47.264;11.330;2023-05-07T13:28:59;31.20;55.90
29547;DHT22;40782;47.264;11.330;2023-05-07T13:31:26;31.40;54.30
29547;DHT22;40782;47.264;11.330;2023-05-07T13:33:53;31.10;56.10
29547;DHT22;40782;47.264;11.330;2023-05-07T13:36:23;30.60;56.90
29547;DHT22;40782;47.264;11.330;2023-05-07T13:38:50;30.50;54.90
29547;DHT22;40782;47.264;11.330;2023-05-07T13:41:17;30.30;55.40
29547;DHT22;40782;47.264;11.330;2023-05-07T13:43:44;29.40;54.60
29547;DHT22;40782;47.264;11.330;2023-05-07T13:46:11;28.60;54.60
29547;DHT22;40782;47.264;11.330;2023-05-07T13:48:38;27.80;56.30
29547;DHT22;40782;47.264;11.330;2023-05-07T13:51:05;27.40;56.90
29547;DHT22;40782;47.264;11.330;2023-05-07T13:53:33;27.10;58.40
29547;DHT22;40782;47.264;11.330;2023-05-07T13:56:01;26.80;58.30
29547;DHT22;40782;47.264;11.330;2023-05-07T13:58:30;26.70;59.20
29547;DHT22;40782;47.264;11.330;2023-05-07T14:00:57;26.70;61.20
29547;DHT22;40782;47.264;11.330;2023-05-07T14:03:24;27.00;61.70
29547;DHT22;40782;47.264;11.330;2023-05-07T14:05:51;27.80;60.50
29547;DHT22;40782;47.264;11.330;2023-05-07T14:08:18;28.60;60.00
29547;DHT22;40782;47.264;11.330;2023-05-07T14:10:46;29.30;56.30
29547;DHT22;40782;47.264;11.330;2023-05-07T14:13:13;30.00;57.10
29547;DHT22;40782;47.264;11.330;2023-05-07T14:15:40;29.80;55.40
29547;DHT22;40782;47.264;11.330;2023-05-07T14:18:11;29.40;56.20
29547;DHT22;40782;47.264;11.330;2023-05-07T14:20:38;29.50;57.30
29547;DHT22;40782;47.264;11.330;2023-05-07T14:23:05;29.50;57.20
29547;DHT22;40782;47.264;11.330;2023-05-07T14:25:33;29.30;56.70
29547;DHT22;40782;47.264;11.330;2023-05-07T14:28:01;28.70;57.50
29547;DHT22;40782;47.264;11.330;2023-05-07T14:30:28;28.10;58.40
29547;DHT22;40782;47.264;11.330;2023-05-07T14:32:56;27.60;59.00
29547;DHT22;40782;47.264;11.330;2023-05-07T14:35:23;27.20;60.30
29547;DHT22;40782;47.264;11.330;2023-05-07T14:37:50;26.90;59.80
29547;DHT22;40782;47.264;11.330;2023-05-07T14:40:17;26.50;61.40
29547;DHT22;40782;47.264;11.330;2023-05-07T14:42:44;26.20;59.90
29547;DHT22;40782;47.264;11.330;2023-05-07T14:45:13;26.10;60.50
29547;DHT22;40782;47.264;11.330;2023-05-07T14:47:40;26.10;61.30
29547;DHT22;40782;47.264;11.330;2023-05-07T14:50:07;25.90;60.40
29547;DHT22;40782;47.264;11.330;2023-05-07T14:52:34;25.90;60.80
29547;DHT22;40782;47.264;11.330;2023-05-07T14:55:02;26.00;61.70
29547;DHT22;40782;47.264;11.330;2023-05-07T14:57:29;26.10;60.80
29547;DHT22;40782;47.264;11.330;2023-05-07T15:00:00;26.00;59.80
29547;DHT22;40782;47.264;11.330;2023-05-07T15:02:29;26.10;59.10
29547;DHT22;40782;47.264;11.330;2023-05-07T15:04:56;26.40;59.20
29547;DHT22;40782;47.264;11.330;2023-05-07T15:07:23;26.50;58.90
29547;DHT22;40782;47.264;11.330;2023-05-07T15:09:50;26.50;59.10
29547;DHT22;40782;47.264;11.330;2023-05-07T15:12:18;26.10;58.40
29547;DHT22;40782;47.264;11.330;2023-05-07T15:14:45;26.00;59.50
29547;DHT22;40782;47.264;11.330;2023-05-07T15:17:12;26.10;60.30
29547;DHT22;40782;47.264;11.330;2023-05-07T15:19:41;26.30;60.50
29547;DHT22;40782;47.264;11.330;2023-05-07T15:22:08;26.70;60.30